SARE/RES METAR and TAF weather

Enter ICAO airport designator
Station Type Date Time Source
SARE METAR 2021/02/27 21:00 UTC NOAA

SARE 272100Z 09005KT 9999 FEW035 35/19 Q1010


Station Type Date Time Source
SARE Decoded METAR 2021/02/27 21:00 UTC NOAA

Resistencia Aero., Argentina (SARE) 27-27S 059-03W 52M
Feb 27, 2021 - 04:00 PM EST / 2021.02.27 2100 UTC
Wind: from the E (090 degrees) at 6 MPH (5 KT):0
Visibility: greater than 7 mile(s):0
Sky conditions: mostly clear
Temperature: 95 F (35 C)
Heat index: 98.4 F (36.9 C):1
Dew Point: 66 F (19 C)
Relative Humidity: 39%
Pressure (altimeter): 29.83 in. Hg (1010 hPa)
ob: SARE 272100Z 09005KT 9999 FEW035 35/19 Q1010
cycle: 21

Station Type Date Time Source
SARE TAF 2021/02/27 18:28 UTC NOAA

TAF SARE 271700Z 2718/2818 09005KT 9999 SCT030 TX37/2719Z TN23/2810Z

Example: see airport list